sensor_id;sensor_type;location;lat;lon;timestamp;pressure;altitude;pressure_sealevel;temperature;humidity
6144;BME280;3103;49.492;8.474;2023-03-23T00:01:18;99800.19;;;15.37;52.85
6144;BME280;3103;49.492;8.474;2023-03-23T00:03:51;99796.53;;;15.23;53.28
6144;BME280;3103;49.492;8.474;2023-03-23T00:06:18;99793.47;;;15.29;53.25
6144;BME280;3103;49.492;8.474;2023-03-23T00:08:47;99795.19;;;15.20;53.32
6144;BME280;3103;49.492;8.474;2023-03-23T00:11:18;99784.25;;;15.30;53.44
6144;BME280;3103;49.492;8.474;2023-03-23T00:13:48;99783.13;;;15.36;53.23
6144;BME280;3103;49.492;8.474;2023-03-23T00:16:22;99772.34;;;15.31;53.34
6144;BME280;3103;49.492;8.474;2023-03-23T00:18:55;99769.31;;;15.38;52.96
6144;BME280;3103;49.492;8.474;2023-03-23T00:21:25;99772.00;;;15.38;53.02
6144;BME280;3103;49.492;8.474;2023-03-23T00:24:19;99778.75;;;15.40;52.96
6144;BME280;3103;49.492;8.474;2023-03-23T00:26:46;99774.13;;;15.41;53.67
6144;BME280;3103;49.492;8.474;2023-03-23T00:29:21;99777.19;;;15.34;52.77
6144;BME280;3103;49.492;8.474;2023-03-23T00:31:50;99771.81;;;15.29;53.15
6144;BME280;3103;49.492;8.474;2023-03-23T00:34:20;99774.88;;;15.23;53.08
6144;BME280;3103;49.492;8.474;2023-03-23T00:36:52;99771.06;;;15.24;52.54
6144;BME280;3103;49.492;8.474;2023-03-23T00:39:19;99776.72;;;15.27;52.30
6144;BME280;3103;49.492;8.474;2023-03-23T00:41:47;99768.69;;;15.17;52.64
6144;BME280;3103;49.492;8.474;2023-03-23T00:44:13;99777.88;;;15.21;52.39
6144;BME280;3103;49.492;8.474;2023-03-23T00:46:49;99771.75;;;15.10;52.59
6144;BME280;3103;49.492;8.474;2023-03-23T00:49:18;99769.84;;;15.11;52.63
6144;BME280;3103;49.492;8.474;2023-03-23T00:51:44;99773.28;;;15.17;52.39
6144;BME280;3103;49.492;8.474;2023-03-23T00:54:10;99776.66;;;15.03;52.58
6144;BME280;3103;49.492;8.474;2023-03-23T00:56:36;99774.44;;;15.10;52.72
6144;BME280;3103;49.492;8.474;2023-03-23T00:59:03;99768.47;;;15.13;52.79
6144;BME280;3103;49.492;8.474;2023-03-23T01:01:29;99770.38;;;15.13;52.27
6144;BME280;3103;49.492;8.474;2023-03-23T01:03:58;99760.16;;;15.05;52.44
6144;BME280;3103;49.492;8.474;2023-03-23T01:06:27;99759.69;;;14.98;53.14
6144;BME280;3103;49.492;8.474;2023-03-23T01:08:53;99756.47;;;14.96;53.15
6144;BME280;3103;49.492;8.474;2023-03-23T01:11:19;99750.56;;;14.89;53.16
6144;BME280;3103;49.492;8.474;2023-03-23T01:13:45;99759.53;;;14.84;53.49
6144;BME280;3103;49.492;8.474;2023-03-23T01:16:12;99748.88;;;14.98;53.24
6144;BME280;3103;49.492;8.474;2023-03-23T01:18:39;99749.97;;;14.97;53.01
6144;BME280;3103;49.492;8.474;2023-03-23T01:21:11;99747.50;;;15.00;53.05
6144;BME280;3103;49.492;8.474;2023-03-23T01:23:37;99748.66;;;14.89;53.36
6144;BME280;3103;49.492;8.474;2023-03-23T01:26:08;99746.22;;;14.93;53.09
6144;BME280;3103;49.492;8.474;2023-03-23T01:28:35;99743.22;;;14.94;53.26
6144;BME280;3103;49.492;8.474;2023-03-23T01:31:09;99738.38;;;14.91;52.84
6144;BME280;3103;49.492;8.474;2023-03-23T01:33:35;99732.13;;;14.96;52.77
6144;BME280;3103;49.492;8.474;2023-03-23T01:36:06;99731.06;;;14.92;52.81
6144;BME280;3103;49.492;8.474;2023-03-23T01:38:34;99736.47;;;14.92;52.81
6144;BME280;3103;49.492;8.474;2023-03-23T01:41:01;99733.22;;;14.95;52.52
6144;BME280;3103;49.492;8.474;2023-03-23T01:43:27;99728.09;;;14.93;52.56
6144;BME280;3103;49.492;8.474;2023-03-23T01:45:53;99727.81;;;14.95;52.49
6144;BME280;3103;49.492;8.474;2023-03-23T01:48:32;99718.69;;;14.85;53.11
6144;BME280;3103;49.492;8.474;2023-03-23T01:53:37;99714.44;;;14.79;53.24
6144;BME280;3103;49.492;8.474;2023-03-23T01:56:04;99709.38;;;14.97;52.96
6144;BME280;3103;49.492;8.474;2023-03-23T01:58:33;99715.84;;;15.01;52.77
6144;BME280;3103;49.492;8.474;2023-03-23T02:01:04;99717.22;;;14.98;53.20
6144;BME280;3103;49.492;8.474;2023-03-23T02:03:31;99706.91;;;15.00;52.83
6144;BME280;3103;49.492;8.474;2023-03-23T02:05:58;99714.72;;;15.07;52.99
6144;BME280;3103;49.492;8.474;2023-03-23T02:08:52;99710.94;;;15.03;53.73
6144;BME280;3103;49.492;8.474;2023-03-23T02:11:20;99716.69;;;14.96;53.88
6144;BME280;3103;49.492;8.474;2023-03-23T02:13:47;99721.91;;;14.88;54.14
6144;BME280;3103;49.492;8.474;2023-03-23T02:16:27;99734.63;;;14.87;54.07
6144;BME280;3103;49.492;8.474;2023-03-23T02:24:58;99715.19;;;14.85;55.01
6144;BME280;3103;49.492;8.474;2023-03-23T02:27:58;99708.38;;;14.88;54.51
6144;BME280;3103;49.492;8.474;2023-03-23T02:31:05;99703.91;;;14.78;54.74
6144;BME280;3103;49.492;8.474;2023-03-23T02:33:45;99703.03;;;14.82;54.70
6144;BME280;3103;49.492;8.474;2023-03-23T02:41:34;99670.00;;;14.85;55.11
6144;BME280;3103;49.492;8.474;2023-03-23T02:44:03;99673.38;;;14.72;55.57
6144;BME280;3103;49.492;8.474;2023-03-23T02:46:30;99671.16;;;14.79;55.51
6144;BME280;3103;49.492;8.474;2023-03-23T02:48:57;99669.50;;;14.83;55.33
6144;BME280;3103;49.492;8.474;2023-03-23T02:51:24;99666.50;;;14.85;55.47
6144;BME280;3103;49.492;8.474;2023-03-23T02:53:51;99658.78;;;14.73;55.74
6144;BME280;3103;49.492;8.474;2023-03-23T02:56:20;99663.09;;;14.74;55.57
6144;BME280;3103;49.492;8.474;2023-03-23T02:58:47;99669.00;;;14.76;55.30
6144;BME280;3103;49.492;8.474;2023-03-23T03:04:09;99675.34;;;14.67;55.77
6144;BME280;3103;49.492;8.474;2023-03-23T03:07:02;99672.38;;;14.63;55.69
6144;BME280;3103;49.492;8.474;2023-03-23T03:09:59;99668.56;;;14.69;55.79
6144;BME280;3103;49.492;8.474;2023-03-23T03:12:51;99655.25;;;14.73;55.21
6144;BME280;3103;49.492;8.474;2023-03-23T03:17:57;99655.31;;;14.68;55.47
6144;BME280;3103;49.492;8.474;2023-03-23T03:20:25;99652.56;;;14.73;55.11
6144;BME280;3103;49.492;8.474;2023-03-23T03:22:54;99656.63;;;14.70;55.14
6144;BME280;3103;49.492;8.474;2023-03-23T03:25:24;99659.91;;;14.67;55.25
6144;BME280;3103;49.492;8.474;2023-03-23T03:27:56;99658.59;;;14.65;55.39
6144;BME280;3103;49.492;8.474;2023-03-23T03:30:36;99661.34;;;14.60;55.12
6144;BME280;3103;49.492;8.474;2023-03-23T03:33:03;99654.31;;;14.59;55.21
6144;BME280;3103;49.492;8.474;2023-03-23T03:35:31;99658.31;;;14.66;54.86
6144;BME280;3103;49.492;8.474;2023-03-23T03:38:06;99662.06;;;14.70;54.44
6144;BME280;3103;49.492;8.474;2023-03-23T03:40:33;99662.50;;;14.77;54.44
6144;BME280;3103;49.492;8.474;2023-03-23T03:43:00;99653.59;;;14.77;54.18
6144;BME280;3103;49.492;8.474;2023-03-23T03:45:25;99660.09;;;14.76;54.25
6144;BME280;3103;49.492;8.474;2023-03-23T03:47:51;99655.16;;;14.83;54.10
6144;BME280;3103;49.492;8.474;2023-03-23T03:50:17;99662.75;;;14.81;54.21
6144;BME280;3103;49.492;8.474;2023-03-23T03:52:43;99670.06;;;14.80;54.40
6144;BME280;3103;49.492;8.474;2023-03-23T03:55:10;99664.38;;;14.82;54.23
6144;BME280;3103;49.492;8.474;2023-03-23T03:57:39;99651.44;;;14.79;54.40
6144;BME280;3103;49.492;8.474;2023-03-23T04:00:21;99662.69;;;14.86;54.62
6144;BME280;3103;49.492;8.474;2023-03-23T04:02:49;99647.84;;;14.83;54.74
6144;BME280;3103;49.492;8.474;2023-03-23T04:05:41;99662.75;;;14.81;54.81
6144;BME280;3103;49.492;8.474;2023-03-23T04:08:07;99663.06;;;14.79;54.98
6144;BME280;3103;49.492;8.474;2023-03-23T04:10:33;99662.25;;;14.79;55.21
6144;BME280;3103;49.492;8.474;2023-03-23T04:13:00;99660.91;;;14.76;55.21
6144;BME280;3103;49.492;8.474;2023-03-23T04:15:45;99660.56;;;14.83;55.30
6144;BME280;3103;49.492;8.474;2023-03-23T04:18:13;99659.00;;;14.77;55.37
6144;BME280;3103;49.492;8.474;2023-03-23T04:20:43;99662.00;;;14.75;55.44
6144;BME280;3103;49.492;8.474;2023-03-23T04:23:10;99674.75;;;14.70;55.98
6144;BME280;3103;49.492;8.474;2023-03-23T04:25:36;99675.28;;;14.72;56.88
6144;BME280;3103;49.492;8.474;2023-03-23T04:28:04;99672.56;;;14.72;57.01
6144;BME280;3103;49.492;8.474;2023-03-23T04:30:36;99685.81;;;14.73;57.88
6144;BME280;3103;49.492;8.474;2023-03-23T04:33:09;99683.91;;;14.74;57.50
6144;BME280;3103;49.492;8.474;2023-03-23T04:35:43;99694.50;;;14.70;58.10
6144;BME280;3103;49.492;8.474;2023-03-23T04:38:31;99693.47;;;14.66;58.33
6144;BME280;3103;49.492;8.474;2023-03-23T04:41:04;99694.78;;;14.69;58.57
6144;BME280;3103;49.492;8.474;2023-03-23T04:43:50;99687.47;;;14.69;59.08
6144;BME280;3103;49.492;8.474;2023-03-23T04:46:28;99688.75;;;14.77;58.87
6144;BME280;3103;49.492;8.474;2023-03-23T04:48:59;99697.78;;;14.67;59.14
6144;BME280;3103;49.492;8.474;2023-03-23T04:51:30;99698.34;;;14.64;60.40
6144;BME280;3103;49.492;8.474;2023-03-23T04:54:02;99699.97;;;14.60;60.47
6144;BME280;3103;49.492;8.474;2023-03-23T04:56:31;99711.38;;;14.57;61.01
6144;BME280;3103;49.492;8.474;2023-03-23T04:59:02;99710.84;;;14.55;61.50
6144;BME280;3103;49.492;8.474;2023-03-23T05:01:34;99710.91;;;14.50;62.35
6144;BME280;3103;49.492;8.474;2023-03-23T05:04:22;99709.31;;;14.39;62.25
6144;BME280;3103;49.492;8.474;2023-03-23T05:07:04;99700.41;;;14.38;62.75
6144;BME280;3103;49.492;8.474;2023-03-23T05:09:36;99709.53;;;14.47;62.70
6144;BME280;3103;49.492;8.474;2023-03-23T05:12:07;99721.50;;;14.36;62.25
6144;BME280;3103;49.492;8.474;2023-03-23T05:14:40;99717.50;;;14.29;62.53
6144;BME280;3103;49.492;8.474;2023-03-23T05:17:09;99722.38;;;14.26;62.86
6144;BME280;3103;49.492;8.474;2023-03-23T05:19:35;99719.91;;;14.30;62.94
6144;BME280;3103;49.492;8.474;2023-03-23T05:22:10;99719.63;;;14.37;62.71
6144;BME280;3103;49.492;8.474;2023-03-23T05:24:44;99720.44;;;14.32;63.02
6144;BME280;3103;49.492;8.474;2023-03-23T05:27:10;99722.84;;;14.34;62.74
6144;BME280;3103;49.492;8.474;2023-03-23T05:29:40;99722.03;;;14.38;62.38
6144;BME280;3103;49.492;8.474;2023-03-23T05:32:07;99725.56;;;14.34;62.68
6144;BME280;3103;49.492;8.474;2023-03-23T05:34:36;99727.22;;;14.30;61.51
6144;BME280;3103;49.492;8.474;2023-03-23T05:37:03;99724.47;;;14.35;61.67
6144;BME280;3103;49.492;8.474;2023-03-23T05:39:44;99729.91;;;14.30;61.92
6144;BME280;3103;49.492;8.474;2023-03-23T05:42:33;99726.13;;;14.31;61.73
6144;BME280;3103;49.492;8.474;2023-03-23T05:45:13;99729.69;;;14.26;62.26
6144;BME280;3103;49.492;8.474;2023-03-23T05:47:40;99723.72;;;14.29;62.27
6144;BME280;3103;49.492;8.474;2023-03-23T05:50:11;99731.22;;;14.37;62.00
6144;BME280;3103;49.492;8.474;2023-03-23T05:52:39;99729.88;;;14.35;62.18
6144;BME280;3103;49.492;8.474;2023-03-23T05:55:08;99741.19;;;14.42;61.88
6144;BME280;3103;49.492;8.474;2023-03-23T05:57:37;99734.97;;;14.41;61.81
6144;BME280;3103;49.492;8.474;2023-03-23T06:00:20;99748.19;;;14.43;61.80
6144;BME280;3103;49.492;8.474;2023-03-23T06:02:55;99745.03;;;14.36;62.05
6144;BME280;3103;49.492;8.474;2023-03-23T06:05:28;99749.56;;;14.40;61.96
6144;BME280;3103;49.492;8.474;2023-03-23T06:07:55;99741.75;;;14.39;62.37
6144;BME280;3103;49.492;8.474;2023-03-23T06:10:21;99750.88;;;14.48;62.34
6144;BME280;3103;49.492;8.474;2023-03-23T06:12:54;99759.56;;;14.50;62.13
6144;BME280;3103;49.492;8.474;2023-03-23T06:15:33;99756.88;;;14.45;62.14
6144;BME280;3103;49.492;8.474;2023-03-23T06:17:59;99753.88;;;14.46;62.19
6144;BME280;3103;49.492;8.474;2023-03-23T06:20:31;99758.97;;;14.53;62.32
6144;BME280;3103;49.492;8.474;2023-03-23T06:23:00;99762.97;;;14.61;61.61
6144;BME280;3103;49.492;8.474;2023-03-23T06:25:31;99759.16;;;14.62;61.52
6144;BME280;3103;49.492;8.474;2023-03-23T06:27:57;99758.66;;;14.60;61.23
6144;BME280;3103;49.492;8.474;2023-03-23T06:30:24;99767.00;;;14.63;61.49
6144;BME280;3103;49.492;8.474;2023-03-23T06:32:50;99759.78;;;14.53;61.90
6144;BME280;3103;49.492;8.474;2023-03-23T06:35:25;99769.19;;;14.61;61.48
6144;BME280;3103;49.492;8.474;2023-03-23T06:37:58;99772.44;;;14.58;61.55
6144;BME280;3103;49.492;8.474;2023-03-23T06:41:02;99770.38;;;14.45;61.82
6144;BME280;3103;49.492;8.474;2023-03-23T06:43:29;99766.00;;;14.49;61.86
6144;BME280;3103;49.492;8.474;2023-03-23T06:46:07;99771.41;;;14.49;61.57
6144;BME280;3103;49.492;8.474;2023-03-23T06:48:56;99777.91;;;14.48;61.48
6144;BME280;3103;49.492;8.474;2023-03-23T06:51:33;99776.88;;;14.39;61.52
6144;BME280;3103;49.492;8.474;2023-03-23T06:54:00;99786.84;;;14.43;61.75
6144;BME280;3103;49.492;8.474;2023-03-23T06:56:30;99797.41;;;14.50;61.66
6144;BME280;3103;49.492;8.474;2023-03-23T06:58:56;99796.84;;;14.43;61.92
6144;BME280;3103;49.492;8.474;2023-03-23T07:01:23;99799.81;;;14.46;61.89
6144;BME280;3103;49.492;8.474;2023-03-23T07:03:56;99804.44;;;14.46;61.99
6144;BME280;3103;49.492;8.474;2023-03-23T07:06:33;99819.81;;;14.50;62.18
6144;BME280;3103;49.492;8.474;2023-03-23T07:09:00;99827.66;;;14.42;62.80
6144;BME280;3103;49.492;8.474;2023-03-23T07:11:28;99818.47;;;14.43;62.69
6144;BME280;3103;49.492;8.474;2023-03-23T07:13:56;99825.00;;;14.37;63.22
6144;BME280;3103;49.492;8.474;2023-03-23T07:16:23;99828.25;;;14.34;63.95
6144;BME280;3103;49.492;8.474;2023-03-23T07:18:51;99828.22;;;14.39;63.88
6144;BME280;3103;49.492;8.474;2023-03-23T07:21:17;99827.66;;;14.42;64.18
6144;BME280;3103;49.492;8.474;2023-03-23T07:23:43;99831.69;;;14.49;63.88
6144;BME280;3103;49.492;8.474;2023-03-23T07:26:17;99830.41;;;14.32;64.52
6144;BME280;3103;49.492;8.474;2023-03-23T07:28:49;99832.63;;;14.19;65.34
6144;BME280;3103;49.492;8.474;2023-03-23T07:31:36;99831.88;;;14.14;66.19
6144;BME280;3103;49.492;8.474;2023-03-23T07:34:02;99839.44;;;14.12;66.46
6144;BME280;3103;49.492;8.474;2023-03-23T07:36:46;99841.94;;;13.93;67.61
6144;BME280;3103;49.492;8.474;2023-03-23T07:39:13;99845.19;;;13.95;68.10
6144;BME280;3103;49.492;8.474;2023-03-23T07:41:40;99845.50;;;13.83;68.81
6144;BME280;3103;49.492;8.474;2023-03-23T07:44:15;99852.78;;;13.78;69.38
6144;BME280;3103;49.492;8.474;2023-03-23T07:46:42;99846.28;;;13.94;69.19
6144;BME280;3103;49.492;8.474;2023-03-23T07:49:14;99854.97;;;13.81;69.81
6144;BME280;3103;49.492;8.474;2023-03-23T07:51:45;99874.94;;;13.80;70.75
6144;BME280;3103;49.492;8.474;2023-03-23T07:54:13;99871.47;;;13.59;71.00
6144;BME280;3103;49.492;8.474;2023-03-23T07:57:06;99870.09;;;13.61;71.41
6144;BME280;3103;49.492;8.474;2023-03-23T07:59:37;99867.94;;;13.69;71.04
6144;BME280;3103;49.492;8.474;2023-03-23T08:02:03;99864.41;;;13.73;71.28
6144;BME280;3103;49.492;8.474;2023-03-23T08:04:52;99868.97;;;13.78;71.12
6144;BME280;3103;49.492;8.474;2023-03-23T08:07:45;99875.50;;;13.61;71.74
6144;BME280;3103;49.492;8.474;2023-03-23T08:10:34;99879.28;;;13.60;72.18
6144;BME280;3103;49.492;8.474;2023-03-23T08:13:10;99871.44;;;13.64;71.86
6144;BME280;3103;49.492;8.474;2023-03-23T08:16:06;99880.34;;;13.70;72.01
6144;BME280;3103;49.492;8.474;2023-03-23T08:18:53;99887.88;;;13.78;71.78
6144;BME280;3103;49.492;8.474;2023-03-23T08:21:39;99886.56;;;13.60;72.35
6144;BME280;3103;49.492;8.474;2023-03-23T08:24:28;99886.84;;;13.58;72.70
6144;BME280;3103;49.492;8.474;2023-03-23T08:27:02;99888.19;;;13.61;72.56
6144;BME280;3103;49.492;8.474;2023-03-23T08:29:52;99890.09;;;13.55;72.58
6144;BME280;3103;49.492;8.474;2023-03-23T08:32:45;99893.31;;;13.62;72.63
6144;BME280;3103;49.492;8.474;2023-03-23T08:35:35;99897.34;;;13.80;72.31
6144;BME280;3103;49.492;8.474;2023-03-23T08:38:18;99903.59;;;13.65;73.21
6144;BME280;3103;49.492;8.474;2023-03-23T08:41:12;99905.16;;;13.82;72.46
6144;BME280;3103;49.492;8.474;2023-03-23T08:43:57;99902.47;;;13.77;72.63
6144;BME280;3103;49.492;8.474;2023-03-23T08:46:52;99908.16;;;13.65;73.34
6144;BME280;3103;49.492;8.474;2023-03-23T08:49:35;99914.91;;;13.73;73.75
6144;BME280;3103;49.492;8.474;2023-03-23T08:52:27;99912.16;;;13.88;74.07
6144;BME280;3103;49.492;8.474;2023-03-23T08:55:12;99912.69;;;13.90;74.59
6144;BME280;3103;49.492;8.474;2023-03-23T08:57:51;99912.41;;;13.91;75.04
6144;BME280;3103;49.492;8.474;2023-03-23T09:00:35;99907.84;;;13.97;75.20
6144;BME280;3103;49.492;8.474;2023-03-23T09:03:01;99914.84;;;13.98;74.51
6144;BME280;3103;49.492;8.474;2023-03-23T09:05:47;99920.53;;;13.91;75.09
6144;BME280;3103;49.492;8.474;2023-03-23T09:08:17;99921.31;;;14.02;74.14
6144;BME280;3103;49.492;8.474;2023-03-23T09:10:43;99916.88;;;14.37;72.84
6144;BME280;3103;49.492;8.474;2023-03-23T09:13:08;99920.16;;;14.29;71.83
6144;BME280;3103;49.492;8.474;2023-03-23T09:15:34;99920.41;;;14.37;70.43
6144;BME280;3103;49.492;8.474;2023-03-23T09:17:59;99930.22;;;14.13;70.21
6144;BME280;3103;49.492;8.474;2023-03-23T09:20:27;99941.28;;;14.11;69.97
6144;BME280;3103;49.492;8.474;2023-03-23T09:22:54;99948.28;;;14.22;69.02
6144;BME280;3103;49.492;8.474;2023-03-23T09:25:25;99947.97;;;14.29;68.91
6144;BME280;3103;49.492;8.474;2023-03-23T09:27:54;99945.03;;;14.25;68.14
6144;BME280;3103;49.492;8.474;2023-03-23T09:30:28;99952.56;;;14.29;66.58
6144;BME280;3103;49.492;8.474;2023-03-23T09:32:55;99957.41;;;14.32;66.43
6144;BME280;3103;49.492;8.474;2023-03-23T09:35:21;99963.16;;;14.15;65.22
6144;BME280;3103;49.492;8.474;2023-03-23T09:37:49;99965.34;;;14.03;66.14
6144;BME280;3103;49.492;8.474;2023-03-23T09:40:49;99955.09;;;13.89;67.44
6144;BME280;3103;49.492;8.474;2023-03-23T09:46:27;99970.44;;;14.14;68.19
6144;BME280;3103;49.492;8.474;2023-03-23T09:49:02;99966.13;;;14.13;69.56
6144;BME280;3103;49.492;8.474;2023-03-23T09:51:51;99975.88;;;13.89;73.01
6144;BME280;3103;49.492;8.474;2023-03-23T09:54:48;99973.47;;;13.72;73.81
6144;BME280;3103;49.492;8.474;2023-03-23T09:57:24;99959.19;;;13.72;74.48
6144;BME280;3103;49.492;8.474;2023-03-23T09:59:59;99963.50;;;13.83;74.25
6144;BME280;3103;49.492;8.474;2023-03-23T10:05:34;99958.03;;;14.03;73.43
6144;BME280;3103;49.492;8.474;2023-03-23T10:08:08;99955.88;;;14.10;73.09
6144;BME280;3103;49.492;8.474;2023-03-23T10:13:27;99950.50;;;13.90;73.32
6144;BME280;3103;49.492;8.474;2023-03-23T10:15:58;99950.25;;;13.96;73.29
6144;BME280;3103;49.492;8.474;2023-03-23T10:18:31;99938.63;;;13.91;72.88
6144;BME280;3103;49.492;8.474;2023-03-23T10:20:59;99935.66;;;13.98;73.03
6144;BME280;3103;49.492;8.474;2023-03-23T10:28:39;99941.28;;;14.11;72.63
6144;BME280;3103;49.492;8.474;2023-03-23T10:31:11;99933.16;;;14.16;72.29
6144;BME280;3103;49.492;8.474;2023-03-23T10:33:45;99920.69;;;14.36;71.60
6144;BME280;3103;49.492;8.474;2023-03-23T10:36:17;99921.97;;;14.53;71.20
6144;BME280;3103;49.492;8.474;2023-03-23T10:38:48;99924.69;;;14.43;71.42
6144;BME280;3103;49.492;8.474;2023-03-23T10:41:16;99922.78;;;14.49;70.58
6144;BME280;3103;49.492;8.474;2023-03-23T10:43:44;99931.91;;;14.63;70.03
6144;BME280;3103;49.492;8.474;2023-03-23T10:46:27;99935.25;;;14.50;69.32
6144;BME280;3103;49.492;8.474;2023-03-23T10:48:56;99944.97;;;14.51;69.31
6144;BME280;3103;49.492;8.474;2023-03-23T10:51:29;99946.34;;;14.38;69.60
6144;BME280;3103;49.492;8.474;2023-03-23T10:53:58;99954.41;;;14.43;69.49
6144;BME280;3103;49.492;8.474;2023-03-23T10:56:27;99951.19;;;14.41;69.98
6144;BME280;3103;49.492;8.474;2023-03-23T10:58:54;99958.25;;;14.27;71.48
6144;BME280;3103;49.492;8.474;2023-03-23T11:01:30;99957.19;;;14.23;72.41
6144;BME280;3103;49.492;8.474;2023-03-23T11:03:57;99948.28;;;14.22;73.34
6144;BME280;3103;49.492;8.474;2023-03-23T11:06:27;99937.97;;;14.30;73.00
6144;BME280;3103;49.492;8.474;2023-03-23T11:09:10;99943.34;;;14.40;73.18
6144;BME280;3103;49.492;8.474;2023-03-23T11:11:39;99951.22;;;14.31;72.76
6144;BME280;3103;49.492;8.474;2023-03-23T11:14:29;99955.25;;;14.34;72.36
6144;BME280;3103;49.492;8.474;2023-03-23T11:17:00;99954.16;;;14.45;72.23
6144;BME280;3103;49.492;8.474;2023-03-23T11:19:32;99954.97;;;14.45;72.94
6144;BME280;3103;49.492;8.474;2023-03-23T11:24:53;99963.94;;;14.20;74.09
6144;BME280;3103;49.492;8.474;2023-03-23T11:27:20;99966.91;;;14.29;74.27
6144;BME280;3103;49.492;8.474;2023-03-23T11:30:20;99959.00;;;14.43;73.73
6144;BME280;3103;49.492;8.474;2023-03-23T11:32:47;99945.78;;;14.41;74.15
6144;BME280;3103;49.492;8.474;2023-03-23T11:35:26;99940.09;;;14.48;74.16
6144;BME280;3103;49.492;8.474;2023-03-23T11:37:57;99927.94;;;14.50;73.46
6144;BME280;3103;49.492;8.474;2023-03-23T11:40:29;99924.97;;;14.47;74.06
6144;BME280;3103;49.492;8.474;2023-03-23T11:43:01;99924.97;;;14.42;73.95
6144;BME280;3103;49.492;8.474;2023-03-23T11:45:38;99926.56;;;14.43;73.35
6144;BME280;3103;49.492;8.474;2023-03-23T11:48:13;99927.31;;;14.64;72.92
6144;BME280;3103;49.492;8.474;2023-03-23T11:50:52;99941.47;;;14.35;73.88
6144;BME280;3103;49.492;8.474;2023-03-23T11:53:32;99934.97;;;14.41;74.33
6144;BME280;3103;49.492;8.474;2023-03-23T11:56:19;99938.47;;;14.42;74.37
6144;BME280;3103;49.492;8.474;2023-03-23T11:58:46;99936.00;;;14.55;74.56
6144;BME280;3103;49.492;8.474;2023-03-23T12:01:31;99920.03;;;14.59;73.39
6144;BME280;3103;49.492;8.474;2023-03-23T12:12:51;99915.97;;;14.62;71.54
6144;BME280;3103;49.492;8.474;2023-03-23T12:15:33;99912.66;;;14.80;70.99
6144;BME280;3103;49.492;8.474;2023-03-23T12:24:06;99930.06;;;15.03;69.60
6144;BME280;3103;49.492;8.474;2023-03-23T12:26:40;99923.06;;;14.97;69.85
6144;BME280;3103;49.492;8.474;2023-03-23T12:32:04;99910.84;;;15.04;69.49
6144;BME280;3103;49.492;8.474;2023-03-23T12:34:57;99902.28;;;15.26;68.78
6144;BME280;3103;49.492;8.474;2023-03-23T12:37:31;99900.88;;;15.34;68.33
6144;BME280;3103;49.492;8.474;2023-03-23T12:40:10;99896.88;;;15.26;67.74
6144;BME280;3103;49.492;8.474;2023-03-23T12:42:57;99900.81;;;15.05;68.25
6144;BME280;3103;49.492;8.474;2023-03-23T12:48:28;99907.31;;;15.09;68.13
6144;BME280;3103;49.492;8.474;2023-03-23T12:51:24;99900.81;;;15.05;68.34
6144;BME280;3103;49.492;8.474;2023-03-23T12:54:01;99882.78;;;15.29;68.04
6144;BME280;3103;49.492;8.474;2023-03-23T12:56:35;99864.66;;;15.30;67.67
6144;BME280;3103;49.492;8.474;2023-03-23T12:59:39;99869.69;;;15.41;67.63
6144;BME280;3103;49.492;8.474;2023-03-23T13:02:32;99869.34;;;15.48;66.46
6144;BME280;3103;49.492;8.474;2023-03-23T13:05:05;99879.47;;;15.37;67.13
6144;BME280;3103;49.492;8.474;2023-03-23T13:07:43;99868.13;;;15.35;67.46
6144;BME280;3103;49.492;8.474;2023-03-23T13:10:22;99878.31;;;15.14;68.17
6144;BME280;3103;49.492;8.474;2023-03-23T13:12:51;99881.78;;;15.20;68.02
6144;BME280;3103;49.492;8.474;2023-03-23T13:15:39;99871.66;;;15.31;67.72
6144;BME280;3103;49.492;8.474;2023-03-23T13:18:46;99875.88;;;15.13;68.04
6144;BME280;3103;49.492;8.474;2023-03-23T13:23:47;99867.69;;;15.23;68.00
6144;BME280;3103;49.492;8.474;2023-03-23T13:26:20;99868.94;;;15.36;67.42
6144;BME280;3103;49.492;8.474;2023-03-23T13:31:24;99874.72;;;15.24;67.56
6144;BME280;3103;49.492;8.474;2023-03-23T13:33:53;99876.41;;;15.15;67.41
6144;BME280;3103;49.492;8.474;2023-03-23T13:36:42;99882.97;;;15.04;67.21
6144;BME280;3103;49.492;8.474;2023-03-23T13:39:25;99885.94;;;15.07;66.88
6144;BME280;3103;49.492;8.474;2023-03-23T13:52:23;99869.50;;;14.99;67.17
6144;BME280;3103;49.492;8.474;2023-03-23T13:54:50;99869.50;;;14.99;67.17
6144;BME280;3103;49.492;8.474;2023-03-23T13:57:38;99862.94;;;15.05;66.76
6144;BME280;3103;49.492;8.474;2023-03-23T14:13:21;99858.97;;;14.97;66.16
6144;BME280;3103;49.492;8.474;2023-03-23T14:16:13;99860.66;;;14.88;66.45
6144;BME280;3103;49.492;8.474;2023-03-23T14:18:42;99853.28;;;14.99;66.15
6144;BME280;3103;49.492;8.474;2023-03-23T14:21:25;99844.56;;;15.07;65.71
6144;BME280;3103;49.492;8.474;2023-03-23T14:23:54;99837.78;;;15.09;65.50
6144;BME280;3103;49.492;8.474;2023-03-23T14:26:22;99841.06;;;15.01;65.65
6144;BME280;3103;49.492;8.474;2023-03-23T14:28:51;99843.19;;;15.09;65.78
6144;BME280;3103;49.492;8.474;2023-03-23T14:31:22;99845.53;;;15.21;65.51
6144;BME280;3103;49.492;8.474;2023-03-23T14:33:51;99844.78;;;15.10;66.01
6144;BME280;3103;49.492;8.474;2023-03-23T14:36:22;99847.72;;;15.14;66.38
6144;BME280;3103;49.492;8.474;2023-03-23T14:39:14;99850.22;;;15.05;66.53
6144;BME280;3103;49.492;8.474;2023-03-23T14:41:41;99854.81;;;15.10;66.56
6144;BME280;3103;49.492;8.474;2023-03-23T14:44:13;99851.03;;;15.06;66.87
6144;BME280;3103;49.492;8.474;2023-03-23T14:46:41;99852.09;;;15.10;67.21
6144;BME280;3103;49.492;8.474;2023-03-23T14:49:14;99851.13;;;14.96;67.40
6144;BME280;3103;49.492;8.474;2023-03-23T14:51:49;99851.38;;;14.99;67.57
6144;BME280;3103;49.492;8.474;2023-03-23T14:54:15;99856.31;;;14.92;68.54
6144;BME280;3103;49.492;8.474;2023-03-23T14:56:41;99858.22;;;14.87;68.57
6144;BME280;3103;49.492;8.474;2023-03-23T14:59:10;99866.63;;;14.85;69.11
6144;BME280;3103;49.492;8.474;2023-03-23T15:01:37;99873.06;;;14.94;68.97
6144;BME280;3103;49.492;8.474;2023-03-23T15:04:24;99864.66;;;14.96;68.85
6144;BME280;3103;49.492;8.474;2023-03-23T15:06:55;99852.88;;;14.81;69.91
6144;BME280;3103;49.492;8.474;2023-03-23T15:09:23;99852.59;;;14.83;69.53
6144;BME280;3103;49.492;8.474;2023-03-23T15:11:56;99855.28;;;14.83;69.84
6144;BME280;3103;49.492;8.474;2023-03-23T15:14:27;99855.81;;;14.85;69.50
6144;BME280;3103;49.492;8.474;2023-03-23T15:16:54;99855.56;;;14.81;69.40
6144;BME280;3103;49.492;8.474;2023-03-23T15:19:32;99857.72;;;14.84;69.55
6144;BME280;3103;49.492;8.474;2023-03-23T15:22:30;99854.47;;;14.82;69.59
6144;BME280;3103;49.492;8.474;2023-03-23T15:25:20;99833.38;;;14.84;69.73